Time;durP1;ratioP1;P1;durP2;ratioP2;P2;SDS_P1;SDS_P2;PMS_P1;PMS_P2;Temp;Humidity;BMP_temperature;BMP_pressure;BME280_temperature;BME280_humidity;BME280_pressure;Samples;Min_cycle;Max_cycle;Signal;HPM_P1;HPM_P2
2022/12/10 00:00:41;;;;;;;58.97;24.87;;;;;;;1.11;94.83;99777.50;5074475;28;20496;-79
2022/12/10 00:03:09;;;;;;;67.53;24.73;;;;;;;1.09;94.69;99779.19;5074448;28;20232;-80
2022/12/10 00:05:36;;;;;;;64.03;25.20;;;;;;;1.12;94.75;99786.06;5075555;28;20219;-80
2022/12/10 00:08:03;;;;;;;71.00;26.07;;;;;;;1.13;95.00;99788.66;5074899;28;20204;-81
2022/12/10 00:10:29;;;;;;;57.57;24.13;;;;;;;1.12;95.30;99778.34;5073482;28;20211;-81
2022/12/10 00:12:56;;;;;;;60.47;23.40;;;;;;;1.12;95.02;99781.75;5074742;28;20253;-81
2022/12/10 00:15:22;;;;;;;58.77;23.67;;;;;;;1.12;95.30;99779.19;5077008;28;20208;-80
2022/12/10 00:17:49;;;;;;;63.63;23.30;;;;;;;1.13;95.11;99778.38;5088488;28;20235;-81
2022/12/10 00:20:17;;;;;;;58.87;23.27;;;;;;;1.06;96.09;99768.88;5083501;28;20223;-80
2022/12/10 00:22:43;;;;;;;51.83;22.43;;;;;;;1.09;96.13;99760.31;5085062;28;20231;-80
2022/12/10 00:25:09;;;;;;;49.93;21.13;;;;;;;1.15;95.57;99755.22;5084438;28;20197;-80
2022/12/10 00:27:36;;;;;;;41.70;20.40;;;;;;;1.17;95.33;99768.97;5083348;28;20203;-81
2022/12/10 00:30:03;;;;;;;50.83;21.90;;;;;;;1.07;95.31;99772.28;5081413;28;20198;-80
2022/12/10 00:32:29;;;;;;;50.10;20.93;;;;;;;1.11;95.99;99758.63;5086258;28;20228;-80
2022/12/10 00:34:56;;;;;;;51.13;23.27;;;;;;;1.08;95.97;99762.03;5083868;28;20204;-80
2022/12/10 00:37:23;;;;;;;46.03;21.40;;;;;;;1.06;95.82;99753.44;5082084;28;20222;-81
2022/12/10 00:39:50;;;;;;;52.87;22.53;;;;;;;1.07;95.81;99750.03;5083731;28;20216;-78
2022/12/10 00:42:16;;;;;;;50.10;21.20;;;;;;;1.05;95.85;99751.75;5084143;28;20228;-81
2022/12/10 00:44:43;;;;;;;45.80;20.03;;;;;;;1.07;96.09;99755.19;5083140;28;20215;-78
2022/12/10 00:47:09;;;;;;;47.13;21.27;;;;;;;1.12;96.71;99750.06;5084274;28;20193;-82
2022/12/10 00:49:36;;;;;;;59.90;23.57;;;;;;;1.15;96.50;99758.69;5084930;28;20209;-80
2022/12/10 00:52:02;;;;;;;46.37;20.90;;;;;;;1.17;95.91;99769.81;5082026;28;20231;-82
2022/12/10 00:54:30;;;;;;;43.57;20.33;;;;;;;1.18;95.86;99778.41;5084174;28;20196;-81
2022/12/10 00:56:57;;;;;;;46.73;20.73;;;;;;;1.13;95.97;99786.06;5083079;28;20311;-78
2022/12/10 00:59:23;;;;;;;37.70;19.87;;;;;;;1.13;95.47;99793.78;5078724;28;20208;-80
2022/12/10 01:01:49;;;;;;;36.67;18.73;;;;;;;1.15;95.58;99788.63;5084454;28;20793;-80
2022/12/10 01:04:18;;;;;;;35.00;19.13;;;;;;;1.19;95.65;99780.13;5081043;28;20774;-79
2022/12/10 01:06:46;;;;;;;41.83;19.50;;;;;;;1.17;95.77;99790.38;5081511;28;20211;-79
2022/12/10 01:09:15;;;;;;;40.70;19.60;;;;;;;1.15;95.84;99797.22;5080007;28;20195;-80
2022/12/10 01:11:45;;;;;;;46.90;24.97;;;;;;;1.19;95.46;99801.53;5080803;28;20445;-80
2022/12/10 01:14:15;;;;;;;35.83;20.03;;;;;;;1.24;95.09;99809.28;5082045;28;20212;-80
2022/12/10 01:16:42;;;;;;;40.10;19.50;;;;;;;1.19;95.16;99816.13;5073064;28;20252;-80
2022/12/10 01:19:08;;;;;;;42.40;20.77;;;;;;;1.18;95.07;99819.53;5088664;28;20705;-78
2022/12/10 01:21:36;;;;;;;48.30;20.17;;;;;;;1.17;94.24;99834.09;5093026;28;20231;-80
2022/12/10 01:24:03;;;;;;;42.57;19.07;;;;;;;1.17;94.24;99841.81;5093504;28;20215;-81
2022/12/10 01:26:33;;;;;;;46.90;20.93;;;;;;;1.15;94.84;99843.50;5093488;28;20214;-80
2022/12/10 01:29:01;;;;;;;47.70;21.00;;;;;;;1.12;94.76;99852.88;5093477;28;20203;-81
2022/12/10 01:31:29;;;;;;;44.40;21.87;;;;;;;1.04;94.29;99868.22;5092506;28;20242;-81
2022/12/10 01:33:56;;;;;;;49.40;20.80;;;;;;;1.05;93.93;99869.97;5093351;28;20203;-80
2022/12/10 01:36:25;;;;;;;46.20;19.73;;;;;;;1.04;94.14;99875.94;5092907;28;20578;-78
2022/12/10 01:38:53;;;;;;;41.50;20.70;;;;;;;1.02;94.56;99877.63;5092876;28;20230;-80
2022/12/10 01:41:21;;;;;;;47.00;19.93;;;;;;;0.98;93.70;99881.84;5092621;28;20239;-82
2022/12/10 01:43:57;;;;;;;52.10;20.93;;;;;;;0.97;94.26;99887.88;5092447;28;20204;-81
2022/12/10 01:46:26;;;;;;;42.90;20.33;;;;;;;0.97;93.68;99889.53;5092769;28;20207;-81
2022/12/10 01:48:53;;;;;;;50.53;22.40;;;;;;;0.92;93.53;99899.78;5092998;28;20215;-80
2022/12/10 01:51:21;;;;;;;53.73;22.00;;;;;;;0.90;93.41;99893.75;5095102;22;20233;-85
2022/12/10 01:53:48;;;;;;;48.67;23.30;;;;;;;0.92;94.52;99898.94;5051161;28;20212;-84
2022/12/10 01:56:17;;;;;;;45.70;21.10;;;;;;;0.89;94.27;99892.06;5040938;28;20206;-84
2022/12/10 01:58:45;;;;;;;54.70;22.23;;;;;;;0.88;93.53;99900.59;5032395;28;20202;-85
2022/12/10 02:01:15;;;;;;;44.20;20.53;;;;;;;0.87;93.57;99900.56;5032107;28;20222;-84
2022/12/10 02:04:13;;;;;;;40.47;19.87;;;;;;;0.82;94.10;99905.66;5033013;28;20197;-84
2022/12/10 02:06:46;;;;;;;46.70;19.33;;;;;;;0.83;94.29;99891.09;5033000;28;20238;-87
2022/12/10 02:09:21;;;;;;;41.13;20.77;;;;;;;0.82;93.83;99889.41;5032113;28;20218;-86
2022/12/10 02:11:56;;;;;;;48.47;20.87;;;;;;;0.78;93.63;99894.47;5032233;28;20232;-84
2022/12/10 02:14:30;;;;;;;48.93;21.27;;;;;;;0.73;93.92;99896.16;5033367;28;20193;-86
2022/12/10 02:16:59;;;;;;;47.97;20.43;;;;;;;0.76;94.36;99882.47;5032625;28;20222;-83
2022/12/10 02:19:42;;;;;;;52.27;20.97;;;;;;;0.79;94.58;99883.38;5032821;28;20557;-86
2022/12/10 02:22:10;;;;;;;49.07;20.00;;;;;;;0.78;94.10;99881.63;5033569;28;20226;-86
2022/12/10 02:24:37;;;;;;;47.33;20.60;;;;;;;0.79;94.16;99880.81;5036563;28;20206;-86
2022/12/10 02:27:09;;;;;;;47.43;21.93;;;;;;;0.79;94.24;99877.34;5036596;28;20232;-86
2022/12/10 02:29:38;;;;;;;48.70;21.20;;;;;;;0.78;93.40;99886.78;5036548;28;20214;-85
2022/12/10 02:32:08;;;;;;;54.23;22.63;;;;;;;0.70;93.08;99883.25;5035923;28;20226;-85
2022/12/10 02:34:38;;;;;;;49.30;21.60;;;;;;;0.71;93.90;99878.97;5036914;28;20213;-85
2022/12/10 02:37:09;;;;;;;56.03;23.67;;;;;;;0.72;93.71;99880.72;5036832;28;20222;-85
2022/12/10 02:39:41;;;;;;;55.97;21.07;;;;;;;0.73;93.53;99870.47;5036495;28;20190;-82
2022/12/10 02:42:09;;;;;;;54.53;23.03;;;;;;;0.74;93.89;99879.03;5036026;28;20222;-85
2022/12/10 02:44:41;;;;;;;51.10;21.20;;;;;;;0.73;93.54;99883.31;5036227;28;20205;-84
2022/12/10 02:47:09;;;;;;;51.77;22.57;;;;;;;0.71;93.69;99887.53;5036399;28;20206;-85
2022/12/10 02:49:37;;;;;;;50.33;22.00;;;;;;;0.72;93.42;99886.72;5036262;28;20574;-85
2022/12/10 02:52:08;;;;;;;43.60;22.00;;;;;;;0.68;93.23;99884.09;5035847;28;20230;-84
2022/12/10 02:54:39;;;;;;;53.63;20.80;;;;;;;0.63;94.73;99875.47;5036411;28;20210;-85
2022/12/10 02:57:19;;;;;;;54.23;21.10;;;;;;;0.67;94.64;99874.66;5036609;28;20220;-85
2022/12/10 03:00:08;;;;;;;43.40;20.50;;;;;;;0.66;94.37;99876.38;5036559;28;20198;-83
2022/12/10 03:02:44;;;;;;;39.27;19.80;;;;;;;0.66;93.63;99871.22;5036616;28;20225;-85
2022/12/10 03:05:18;;;;;;;40.83;19.93;;;;;;;0.63;93.36;99881.44;5035964;28;20206;-85
2022/12/10 03:07:51;;;;;;;48.97;21.40;;;;;;;0.61;93.89;99878.00;5035978;28;20671;-85
2022/12/10 03:10:25;;;;;;;45.40;20.43;;;;;;;0.57;93.49;99895.06;5036289;28;20187;-85
2022/12/10 03:12:55;;;;;;;47.90;20.70;;;;;;;0.56;93.97;99888.22;5036254;28;20190;-86
2022/12/10 03:15:25;;;;;;;45.87;20.50;;;;;;;0.54;94.15;99889.91;5035981;28;20210;-85
2022/12/10 03:17:54;;;;;;;48.67;21.27;;;;;;;0.54;94.03;99882.22;5040905;28;20233;-84
2022/12/10 03:20:23;;;;;;;47.67;22.63;;;;;;;0.55;94.04;99875.34;5034915;28;20590;-83
2022/12/10 03:22:50;;;;;;;45.67;20.73;;;;;;;0.54;94.01;99876.22;5034904;28;20210;-83
2022/12/10 03:25:22;;;;;;;57.00;22.17;;;;;;;0.52;94.63;99876.19;5035024;28;20217;-85
2022/12/10 03:27:52;;;;;;;51.77;21.73;;;;;;;0.45;94.39;99858.13;5034749;28;20206;-84
2022/12/10 03:30:18;;;;;;;49.23;20.77;;;;;;;0.49;94.75;99840.19;5034166;28;20202;-85
2022/12/10 03:32:47;;;;;;;47.00;20.67;;;;;;;0.54;95.49;99833.41;5033967;28;20214;-82
2022/12/10 03:35:15;;;;;;;52.87;20.93;;;;;;;0.52;95.57;99819.69;5034731;28;20238;-84
2022/12/10 03:37:42;;;;;;;47.83;20.60;;;;;;;0.55;95.63;99822.28;5034323;28;20237;-84
2022/12/10 03:40:11;;;;;;;47.87;21.00;;;;;;;0.54;95.25;99820.59;5034078;28;20225;-86
2022/12/10 03:42:38;;;;;;;45.87;21.27;;;;;;;0.55;94.59;99831.72;5034136;28;20724;-83
2022/12/10 03:45:07;;;;;;;45.70;20.93;;;;;;;0.52;94.55;99839.38;5034669;28;20210;-83
2022/12/10 03:47:34;;;;;;;46.80;19.50;;;;;;;0.56;94.52;99838.59;5034238;28;20203;-84
2022/12/10 03:50:02;;;;;;;44.97;19.23;;;;;;;0.53;94.09;99847.09;5033872;28;20700;-84
2022/12/10 03:52:28;;;;;;;45.27;20.17;;;;;;;0.53;94.82;99846.22;5034286;28;20250;-83
2022/12/10 03:54:54;;;;;;;53.63;21.13;;;;;;;0.55;94.06;99841.97;5034178;28;20595;-84
2022/12/10 03:57:21;;;;;;;52.67;21.30;;;;;;;0.54;94.46;99864.22;5034197;28;20739;-83
2022/12/10 03:59:47;;;;;;;39.43;18.03;;;;;;;0.52;94.22;99865.91;5034202;28;20217;-82
2022/12/10 04:02:14;;;;;;;43.70;19.73;;;;;;;0.52;94.42;99865.91;5034036;28;20230;-86
2022/12/10 04:04:40;;;;;;;46.23;20.97;;;;;;;0.50;94.06;99870.19;5034144;28;20207;-84
2022/12/10 04:07:08;;;;;;;46.83;20.70;;;;;;;0.47;94.34;99870.13;5034584;28;20202;-83
2022/12/10 04:09:35;;;;;;;52.77;21.30;;;;;;;0.47;94.25;99882.97;5033586;28;20210;-83
2022/12/10 04:12:01;;;;;;;41.83;19.23;;;;;;;0.48;94.08;99871.00;5033699;28;20306;-83
2022/12/10 04:17:13;;;;;;;41.20;17.53;;;;;;;0.48;94.53;99871.00;5034114;28;20711;-86
2022/12/10 04:19:39;;;;;;;39.03;17.93;;;;;;;0.46;93.83;99873.56;5033718;28;20671;-84
2022/12/10 04:27:47;;;;;;;38.87;18.73;;;;;;;0.41;94.21;99885.44;5032333;28;20202;-82
2022/12/10 04:30:13;;;;;;;39.07;18.03;;;;;;;0.41;94.16;99882.03;5033008;28;20206;-86
2022/12/10 04:32:40;;;;;;;34.40;17.40;;;;;;;0.37;94.05;99886.25;5033054;28;20318;-82
2022/12/10 04:35:07;;;;;;;39.37;17.63;;;;;;;0.29;93.68;99891.28;5032953;28;20209;-84
2022/12/10 04:37:35;;;;;;;40.00;18.73;;;;;;;0.30;94.24;99887.03;5033305;28;20618;-85
2022/12/10 04:40:02;;;;;;;47.70;19.83;;;;;;;0.28;94.55;99876.75;5032996;28;20206;-84
2022/12/10 04:42:29;;;;;;;35.43;17.73;;;;;;;0.29;94.85;99875.03;5033286;28;20222;-85
2022/12/10 04:44:55;;;;;;;36.03;17.87;;;;;;;0.29;94.93;99881.00;5032199;28;20701;-85
2022/12/10 04:47:22;;;;;;;40.57;19.53;;;;;;;0.26;94.36;99867.28;5033133;28;20676;-84
2022/12/10 04:49:48;;;;;;;34.67;17.70;;;;;;;0.25;94.80;99875.84;5032939;28;20207;-81
2022/12/10 04:52:15;;;;;;;36.07;17.43;;;;;;;0.22;94.30;99875.78;5032856;28;20245;-84
2022/12/10 04:54:44;;;;;;;36.07;19.40;;;;;;;0.20;94.77;99873.22;5033168;28;20289;-84
2022/12/10 04:57:11;;;;;;;35.63;17.40;;;;;;;0.22;94.28;99874.09;5032903;28;20224;-83
2022/12/10 04:59:38;;;;;;;38.67;18.53;;;;;;;0.21;94.54;99877.47;5033093;28;20308;-84
2022/12/10 05:02:04;;;;;;;45.60;19.37;;;;;;;0.21;94.93;99879.19;5032482;28;20233;-84
2022/12/10 05:04:31;;;;;;;40.77;19.53;;;;;;;0.22;94.34;99863.81;5033633;28;20643;-84
2022/12/10 05:06:58;;;;;;;36.30;17.60;;;;;;;0.19;94.69;99874.03;5033006;28;20213;-85
2022/12/10 05:09:24;;;;;;;44.13;18.07;;;;;;;0.18;94.51;99867.19;5033428;28;20211;-85
2022/12/10 05:11:52;;;;;;;34.73;17.70;;;;;;;0.19;94.72;99863.78;5032373;28;20717;-82
2022/12/10 05:14:18;;;;;;;35.40;18.27;;;;;;;0.16;94.58;99864.59;5032918;28;20203;-83
2022/12/10 05:16:45;;;;;;;35.83;17.23;;;;;;;0.17;94.68;99861.19;5032856;28;20216;-84
2022/12/10 05:19:12;;;;;;;33.27;18.30;;;;;;;0.16;95.21;99862.03;5032996;28;20226;-84
2022/12/10 05:24:22;;;;;;;36.43;17.77;;;;;;;0.13;94.87;99867.13;5032501;28;20731;-83
2022/12/10 05:26:50;;;;;;;34.03;17.57;;;;;;;0.11;94.76;99868.78;5032222;28;20669;-81
2022/12/10 05:29:19;;;;;;;32.87;17.60;;;;;;;0.13;95.36;99858.56;5032690;28;20288;-83
2022/12/10 05:31:45;;;;;;;34.57;18.10;;;;;;;0.12;95.21;99864.50;5032218;28;20229;-83
2022/12/10 05:34:12;;;;;;;39.37;17.37;;;;;;;0.10;94.56;99869.66;5032722;28;20217;-85
2022/12/10 05:36:38;;;;;;;33.37;17.63;;;;;;;0.11;95.36;99871.34;5032632;28;20209;-83
2022/12/10 05:39:05;;;;;;;38.00;16.53;;;;;;;0.13;95.29;99861.97;5032459;28;20238;-83
2022/12/10 05:41:36;;;;;;;30.90;16.13;;;;;;;0.10;95.37;99866.19;5032005;28;20255;-83
2022/12/10 05:44:03;;;;;;;36.00;15.93;;;;;;;0.11;95.27;99884.19;5033106;28;20210;-82
2022/12/10 05:46:33;;;;;;;38.60;17.00;;;;;;;0.10;94.53;99884.16;5031968;28;20206;-84
2022/12/10 05:49:01;;;;;;;36.00;16.77;;;;;;;0.12;94.57;99883.38;5032359;28;20206;-83
2022/12/10 05:51:30;;;;;;;32.27;16.63;;;;;;;0.04;95.07;99877.25;5031854;28;20245;-84
2022/12/10 05:53:58;;;;;;;33.33;16.37;;;;;;;0.11;96.14;99863.66;5032110;28;20206;-84
2022/12/10 05:56:26;;;;;;;34.33;17.47;;;;;;;0.14;95.21;99862.84;5032086;28;20217;-84
2022/12/10 05:58:54;;;;;;;42.33;17.63;;;;;;;0.11;96.02;99861.09;5032026;28;20226;-82
2022/12/10 06:01:23;;;;;;;34.57;17.37;;;;;;;0.16;95.32;99856.91;5031853;28;20226;-83
2022/12/10 06:03:52;;;;;;;31.00;15.50;;;;;;;0.15;95.41;99867.13;5032426;28;20206;-84
2022/12/10 06:06:22;;;;;;;39.20;16.53;;;;;;;0.15;95.29;99878.25;5032083;28;20263;-84
2022/12/10 06:08:48;;;;;;;31.23;15.43;;;;;;;0.19;95.08;99881.75;5032380;28;20246;-83
2022/12/10 06:11:15;;;;;;;40.17;15.33;;;;;;;0.18;94.97;99886.00;5031944;28;20234;-82
2022/12/10 06:13:41;;;;;;;36.13;15.83;;;;;;;0.15;94.31;99903.06;5032345;28;20206;-81
2022/12/10 06:16:10;;;;;;;30.90;15.53;;;;;;;0.14;94.73;99904.78;5032106;28;20701;-82
2022/12/10 06:18:38;;;;;;;31.67;13.63;;;;;;;0.14;94.70;99907.34;5032045;28;20233;-83
2022/12/10 06:21:07;;;;;;;32.93;15.10;;;;;;;0.12;94.73;99915.84;5032192;28;20233;-82
2022/12/10 06:23:34;;;;;;;34.87;14.30;;;;;;;0.07;94.59;99913.22;5032711;28;20210;-83
2022/12/10 06:26:04;;;;;;;27.03;14.13;;;;;;;0.07;94.88;99909.78;5032542;28;20202;-82
2022/12/10 06:28:30;;;;;;;34.43;15.37;;;;;;;0.07;94.64;99910.66;5032261;28;20688;-83
2022/12/10 06:30:58;;;;;;;33.03;15.10;;;;;;;0.07;94.57;99908.09;5032208;28;20231;-82
2022/12/10 06:33:25;;;;;;;30.03;14.70;;;;;;;0.09;95.08;99908.13;5032107;28;20218;-84
2022/12/10 06:35:51;;;;;;;30.53;14.57;;;;;;;0.10;94.50;99910.72;5032423;28;20206;-83
2022/12/10 06:38:19;;;;;;;30.40;13.90;;;;;;;0.11;94.85;99909.84;5032248;28;20227;-83
2022/12/10 06:40:45;;;;;;;29.30;14.20;;;;;;;0.13;94.86;99915.00;5031961;28;20230;-83
2022/12/10 06:43:12;;;;;;;30.83;15.30;;;;;;;0.14;94.60;99929.56;5032098;28;20206;-83
2022/12/10 06:45:39;;;;;;;29.97;15.67;;;;;;;0.12;94.95;99920.97;5031666;28;20652;-83
2022/12/10 06:48:06;;;;;;;26.47;15.37;;;;;;;0.10;94.91;99920.09;5032193;28;20210;-85
2022/12/10 06:50:32;;;;;;;34.03;16.47;;;;;;;0.11;95.15;99914.97;5031846;28;20218;-83
2022/12/10 06:52:59;;;;;;;32.43;15.90;;;;;;;0.13;94.96;99915.00;5032131;28;20213;-84
2022/12/10 06:55:26;;;;;;;33.33;16.53;;;;;;;0.13;94.41;99925.28;5031909;28;20217;-85
2022/12/10 06:57:53;;;;;;;34.50;16.17;;;;;;;0.16;95.12;99933.88;5031964;28;20234;-82
2022/12/10 07:00:20;;;;;;;35.13;16.47;;;;;;;0.16;94.99;99931.31;5031665;28;20211;-83
2022/12/10 07:02:48;;;;;;;27.93;14.70;;;;;;;0.14;95.60;99927.00;5031840;28;20214;-82
2022/12/10 07:05:14;;;;;;;22.03;13.20;;;;;;;0.13;95.31;99909.88;5032151;28;20224;-83
2022/12/10 07:07:42;;;;;;;26.57;13.93;;;;;;;0.16;95.68;99899.69;5033626;28;20198;-83
2022/12/10 07:10:09;;;;;;;31.60;13.90;;;;;;;0.25;95.52;99902.34;5035946;28;20229;-85
2022/12/10 07:12:37;;;;;;;28.20;14.63;;;;;;;0.21;95.76;99913.41;5035578;28;20226;-85
2022/12/10 07:15:04;;;;;;;29.07;14.83;;;;;;;0.23;95.55;99911.72;5035525;28;20298;-84
2022/12/10 07:17:31;;;;;;;34.17;14.77;;;;;;;0.25;95.39;99922.03;5035812;28;20212;-85
2022/12/10 07:19:57;;;;;;;29.20;15.07;;;;;;;0.29;94.86;99931.50;5035219;28;20583;-86
2022/12/10 07:22:24;;;;;;;27.40;15.00;;;;;;;0.29;95.23;99934.06;5034892;28;20226;-84
2022/12/10 07:24:50;;;;;;;29.20;15.53;;;;;;;0.29;95.12;99932.34;5034891;28;20210;-83
2022/12/10 07:27:17;;;;;;;29.57;15.63;;;;;;;0.27;94.36;99948.59;5035136;28;20233;-83
2022/12/10 07:29:45;;;;;;;26.60;15.00;;;;;;;0.27;94.88;99954.56;5034607;28;20206;-86
2022/12/10 07:32:12;;;;;;;34.97;15.83;;;;;;;0.29;93.97;99959.72;5034406;28;20241;-83
2022/12/10 07:34:38;;;;;;;23.70;15.07;;;;;;;0.27;94.08;99971.69;5034810;28;20202;-84
2022/12/10 07:37:05;;;;;;;27.83;14.97;;;;;;;0.21;94.55;99977.56;5034471;28;20213;-82
2022/12/10 07:39:32;;;;;;;26.90;15.43;;;;;;;0.23;94.82;99972.47;5034696;28;20281;-82
2022/12/10 07:41:58;;;;;;;26.67;15.93;;;;;;;0.23;94.18;99975.91;5033976;28;20247;-82
2022/12/10 07:44:26;;;;;;;26.20;13.80;;;;;;;0.23;94.36;99978.47;5034329;28;20217;-85
2022/12/10 07:46:55;;;;;;;22.70;14.33;;;;;;;0.21;94.59;99985.28;5034650;28;20206;-84
2022/12/10 07:49:22;;;;;;;18.07;14.27;;;;;;;0.21;94.31;99994.69;5034499;28;20210;-82
2022/12/10 07:51:49;;;;;;;33.83;18.13;;;;;;;0.19;94.48;99989.53;5055672;23;20227;-82
2022/12/10 07:54:17;;;;;;;29.47;14.70;;;;;;;0.18;94.52;99990.38;5076631;28;20206;-83
2022/12/10 07:56:43;;;;;;;19.90;14.00;;;;;;;0.18;94.34;99987.81;5076433;28;20213;-82
2022/12/10 07:59:10;;;;;;;29.20;14.80;;;;;;;0.16;94.08;99990.34;5076568;28;20226;-82
2022/12/10 08:01:37;;;;;;;27.13;15.60;;;;;;;0.15;93.76;100003.16;5076056;28;20230;-82
2022/12/10 08:04:04;;;;;;;29.00;16.00;;;;;;;0.14;94.13;100004.88;5075985;28;20234;-82
2022/12/10 08:06:31;;;;;;;26.50;13.67;;;;;;;0.11;95.13;99988.53;5076271;28;20219;-80
2022/12/10 08:08:59;;;;;;;24.30;13.30;;;;;;;0.16;95.08;99980.09;5076167;28;20197;-82
2022/12/10 08:11:26;;;;;;;29.80;14.13;;;;;;;0.16;94.51;99977.53;5075571;28;20213;-82
2022/12/10 08:13:53;;;;;;;25.40;15.17;;;;;;;0.19;94.98;99969.00;5075905;28;20205;-82
2022/12/10 08:16:22;;;;;;;25.83;14.90;;;;;;;0.22;95.76;99957.91;5075678;28;20213;-82
2022/12/10 08:18:49;;;;;;;28.23;14.93;;;;;;;0.26;95.27;99952.84;5075616;28;20228;-79
2022/12/10 08:21:18;;;;;;;28.27;16.20;;;;;;;0.23;95.98;99945.09;5075394;28;20208;-80
2022/12/10 08:23:45;;;;;;;29.87;16.73;;;;;;;0.30;95.24;99951.22;5075570;28;20227;-80
2022/12/10 08:26:14;;;;;;;26.53;13.80;;;;;;;0.31;94.89;99953.78;5075617;28;20209;-80
2022/12/10 08:28:41;;;;;;;25.93;15.87;;;;;;;0.29;95.36;99967.44;5076998;28;20197;-82
2022/12/10 08:31:09;;;;;;;28.67;15.00;;;;;;;0.27;95.17;99946.00;5074716;28;20209;-82
2022/12/10 08:33:36;;;;;;;30.27;16.60;;;;;;;0.30;96.13;99946.06;5075292;28;20244;-79
2022/12/10 08:36:03;;;;;;;25.33;13.87;;;;;;;0.34;95.24;99958.09;5074747;28;20206;-79
2022/12/10 08:38:31;;;;;;;30.70;14.30;;;;;;;0.25;95.67;99965.66;5073976;28;20232;-79
2022/12/10 08:40:58;;;;;;;23.10;13.77;;;;;;;0.32;95.34;99964.94;5073878;28;20231;-79
2022/12/10 08:43:25;;;;;;;28.40;15.07;;;;;;;0.35;95.15;99978.66;5074451;28;20225;-81
2022/12/10 08:45:51;;;;;;;28.93;15.13;;;;;;;0.32;95.20;99977.75;5074167;28;20554;-80
2022/12/10 08:48:18;;;;;;;25.33;14.93;;;;;;;0.33;95.07;99972.63;5073791;28;20212;-80
2022/12/10 08:50:45;;;;;;;28.30;15.57;;;;;;;0.33;95.23;99975.19;5072567;28;20675;-80
2022/12/10 08:53:12;;;;;;;26.83;13.97;;;;;;;0.37;94.91;99983.81;5072758;28;20224;-81
2022/12/10 08:55:40;;;;;;;36.40;16.53;;;;;;;0.33;95.09;99979.47;5071525;28;20212;-79
2022/12/10 08:58:07;;;;;;;24.40;15.03;;;;;;;0.29;94.95;99982.84;5072046;28;20287;-80
2022/12/10 09:00:33;;;;;;;31.90;15.27;;;;;;;0.34;94.92;99981.22;5072943;28;20205;-81
2022/12/10 09:02:59;;;;;;;31.60;15.17;;;;;;;0.38;94.88;99988.13;5072817;28;20718;-80
2022/12/10 09:05:26;;;;;;;29.70;15.37;;;;;;;0.36;94.71;99989.81;5072345;28;20229;-78
2022/12/10 09:07:52;;;;;;;27.47;15.57;;;;;;;0.36;95.42;99990.66;5072523;28;20198;-77
2022/12/10 09:10:19;;;;;;;32.63;16.40;;;;;;;0.37;95.31;99989.78;5073387;28;20200;-79
2022/12/10 09:12:47;;;;;;;30.87;16.10;;;;;;;0.38;94.62;99994.09;5074852;28;20626;-80
2022/12/10 09:15:13;;;;;;;33.10;16.50;;;;;;;0.38;95.00;99993.25;5074897;28;20213;-79
2022/12/10 09:17:39;;;;;;;32.23;17.73;;;;;;;0.39;95.27;99992.41;5073426;28;20729;-76
2022/12/10 09:20:07;;;;;;;30.20;15.83;;;;;;;0.43;94.93;99999.31;5071973;28;20904;-78
2022/12/10 09:22:36;;;;;;;34.07;15.37;;;;;;;0.44;94.67;100016.44;5073472;28;20225;-77
2022/12/10 09:25:03;;;;;;;29.87;16.03;;;;;;;0.42;94.52;100025.84;5072148;28;20235;-77
2022/12/10 09:27:30;;;;;;;27.97;15.70;;;;;;;0.47;94.71;100020.75;5074493;28;20679;-78
2022/12/10 09:29:58;;;;;;;32.03;17.57;;;;;;;0.49;94.67;100029.34;5074356;28;20205;-78
2022/12/10 09:32:25;;;;;;;32.97;17.47;;;;;;;0.48;93.45;100040.47;5073522;28;20221;-79
2022/12/10 09:34:51;;;;;;;36.93;16.87;;;;;;;0.43;94.09;100048.09;5073524;28;20676;-79
2022/12/10 09:37:18;;;;;;;32.77;17.53;;;;;;;0.42;93.70;100048.06;5073991;28;20209;-80
2022/12/10 09:39:44;;;;;;;37.67;16.10;;;;;;;0.45;93.69;100050.69;5072381;28;20228;-77
2022/12/10 09:42:24;;;;;;;35.17;16.83;;;;;;;0.46;94.09;100045.56;5072581;28;20228;-77
2022/12/10 09:45:02;;;;;;;31.27;16.07;;;;;;;0.41;93.99;100054.03;5072961;28;20246;-82
2022/12/10 09:47:36;;;;;;;29.37;16.00;;;;;;;0.38;94.23;100049.72;5074305;28;20200;-81
2022/12/10 09:50:11;;;;;;;36.90;17.07;;;;;;;0.38;94.27;100040.31;5073914;28;20211;-81
2022/12/10 09:52:42;;;;;;;30.33;16.23;;;;;;;0.38;94.18;100040.31;5072985;28;20240;-80
2022/12/10 09:55:14;;;;;;;35.57;16.77;;;;;;;0.41;93.73;100039.50;5072277;28;20241;-78
2022/12/10 09:57:44;;;;;;;38.97;17.87;;;;;;;0.39;93.81;100052.28;5072555;28;20287;-78
2022/12/10 10:00:23;;;;;;;42.47;18.00;;;;;;;0.38;93.24;100047.16;5072509;28;20232;-78
2022/12/10 10:02:52;;;;;;;38.93;17.43;;;;;;;0.39;93.77;100057.44;5072352;28;20230;-81
2022/12/10 10:05:23;;;;;;;42.30;17.57;;;;;;;0.38;93.89;100060.00;5072848;28;20707;-79
2022/12/10 10:07:53;;;;;;;36.37;16.80;;;;;;;0.36;94.06;100051.41;5072618;28;20634;-78
2022/12/10 10:10:27;;;;;;;32.73;17.07;;;;;;;0.38;93.47;100065.13;5072317;28;20232;-81
2022/12/10 10:12:56;;;;;;;38.27;16.87;;;;;;;0.37;93.71;100066.81;5071796;28;20235;-81
2022/12/10 10:15:29;;;;;;;42.17;18.23;;;;;;;0.34;93.16;100061.66;5073425;28;20208;-79
2022/12/10 10:18:02;;;;;;;41.77;18.93;;;;;;;0.33;93.49;100057.34;5071884;28;20702;-81
2022/12/10 10:20:29;;;;;;;37.50;18.10;;;;;;;0.39;93.99;100054.00;5072926;28;20239;-79
2022/12/10 10:22:58;;;;;;;40.37;18.17;;;;;;;0.40;93.67;100050.63;5072360;28;20233;-79
2022/12/10 10:25:24;;;;;;;45.87;19.00;;;;;;;0.38;93.89;100052.31;5071899;28;20205;-79
2022/12/10 10:27:51;;;;;;;43.73;19.93;;;;;;;0.41;93.63;100064.31;5072884;28;20220;-79
2022/12/10 10:30:21;;;;;;;38.27;17.97;;;;;;;0.40;93.94;100068.59;5072887;28;20563;-79
2022/12/10 10:32:51;;;;;;;36.47;17.07;;;;;;;0.39;93.68;100069.41;5072558;28;20216;-78
2022/12/10 10:35:29;;;;;;;44.60;19.23;;;;;;;0.39;93.42;100069.41;5073404;28;20200;-79
2022/12/10 10:38:01;;;;;;;43.77;18.47;;;;;;;0.37;93.95;100063.38;5072467;28;20201;-79
2022/12/10 10:40:30;;;;;;;39.00;17.67;;;;;;;0.37;93.46;100063.38;5072378;28;20221;-80
2022/12/10 10:42:59;;;;;;;42.10;18.83;;;;;;;0.37;93.49;100073.66;5073393;28;20231;-79
2022/12/10 10:45:36;;;;;;;45.00;18.10;;;;;;;0.33;93.29;100069.31;5076424;28;20209;-79
2022/12/10 10:48:09;;;;;;;48.93;20.00;;;;;;;0.33;93.41;100074.44;5076077;28;20211;-79
2022/12/10 10:50:43;;;;;;;48.37;19.87;;;;;;;0.35;93.02;100065.94;5076191;28;20190;-79
2022/12/10 10:53:27;;;;;;;47.43;21.90;;;;;;;0.35;93.70;100071.06;5075700;28;20235;-80
2022/12/10 10:55:55;;;;;;;44.97;19.33;;;;;;;0.31;93.49;100076.13;5076023;28;20582;-79
2022/12/10 10:58:24;;;;;;;52.47;19.97;;;;;;;0.31;93.35;100074.41;5077564;28;20205;-79
2022/12/10 11:00:59;;;;;;;50.00;20.73;;;;;;;0.33;93.21;100061.63;5075948;28;20320;-79
2022/12/10 11:03:27;;;;;;;48.90;18.67;;;;;;;0.32;93.85;100059.91;5076412;28;20229;-79
2022/12/10 11:05:56;;;;;;;56.23;23.67;;;;;;;0.37;93.96;100053.97;5076460;28;20227;-79
2022/12/10 11:08:25;;;;;;;60.13;24.57;;;;;;;0.41;94.19;100042.06;5075794;28;20209;-80
2022/12/10 11:11:01;;;;;;;53.10;20.67;;;;;;;0.44;93.92;100047.25;5076109;28;20679;-79
2022/12/10 11:13:30;;;;;;;46.00;20.57;;;;;;;0.46;92.97;100053.28;5076229;28;20236;-80
2022/12/10 11:15:59;;;;;;;45.07;20.07;;;;;;;0.48;93.56;100059.31;5076228;28;20209;-78
2022/12/10 11:18:32;;;;;;;52.03;21.27;;;;;;;0.51;92.95;100071.31;5075941;28;20216;-80
2022/12/10 11:21:03;;;;;;;49.07;19.83;;;;;;;0.51;92.67;100071.31;5075885;28;20260;-79
2022/12/10 11:23:31;;;;;;;40.70;18.23;;;;;;;0.48;92.83;100086.69;5076246;28;20574;-79
2022/12/10 11:26:05;;;;;;;42.33;17.23;;;;;;;0.45;93.07;100094.31;5076146;28;20212;-79
2022/12/10 11:28:44;;;;;;;42.77;19.27;;;;;;;0.43;93.11;100089.16;5076206;28;20207;-80
2022/12/10 11:31:24;;;;;;;43.53;19.47;;;;;;;0.42;92.30;100084.88;5075691;28;20573;-79
2022/12/10 11:34:02;;;;;;;41.43;19.50;;;;;;;0.48;92.44;100087.53;5076004;28;20206;-80
2022/12/10 11:36:39;;;;;;;50.57;19.20;;;;;;;0.47;93.02;100085.81;5074239;28;20188;-81
2022/12/10 11:39:16;;;;;;;39.37;17.90;;;;;;;0.44;92.31;100096.03;5073895;28;20745;-80
2022/12/10 11:41:50;;;;;;;41.17;18.83;;;;;;;0.33;92.51;100107.81;5075749;28;20228;-80